Time;durP1;ratioP1;P1;durP2;ratioP2;P2;SDS_P1;SDS_P2;PMS_P1;PMS_P2;Temp;Humidity;BMP_temperature;BMP_pressure;BME280_temperature;BME280_humidity;BME280_pressure;Samples;Min_cycle;Max_cycle;Signal;HPM_P1;HPM_P2
2022/08/31 00:05:23;;;;;;;12.25;2.70;;;;;;;;;;5055570;28;20158;-75
2022/08/31 00:07:48;;;;;;;2.90;2.60;;;;;;;;;;5055711;28;20079;-74
2022/08/31 00:10:17;;;;;;;4.35;2.67;;;;;;;;;;5055646;28;20036;-74
2022/08/31 00:12:44;;;;;;;4.03;2.60;;;;;;;;;;5056178;28;20047;-76
2022/08/31 00:15:13;;;;;;;4.18;2.63;;;;;;;;;;5054323;28;20032;-75
2022/08/31 00:17:39;;;;;;;5.47;2.53;;;;;;;;;;5055773;28;20020;-75
2022/08/31 00:20:06;;;;;;;5.82;2.90;;;;;;;;;;5055399;28;20029;-74
2022/08/31 00:22:31;;;;;;;4.47;2.75;;;;;;;;;;5054807;28;20331;-75
2022/08/31 00:24:57;;;;;;;4.07;2.85;;;;;;;;;;5055730;28;20020;-76
2022/08/31 00:27:22;;;;;;;4.45;2.60;;;;;;;;;;5054301;28;20056;-76
2022/08/31 00:29:47;;;;;;;6.68;2.95;;;;;;;;;;5055471;28;20062;-75
2022/08/31 00:32:12;;;;;;;3.50;2.78;;;;;;;;;;5055381;28;20132;-76
2022/08/31 00:34:37;;;;;;;4.57;2.70;;;;;;;;;;5055534;28;20025;-75
2022/08/31 00:37:03;;;;;;;4.80;2.60;;;;;;;;;;5055235;28;20262;-76
2022/08/31 00:39:28;;;;;;;6.07;2.95;;;;;;;;;;5055489;28;20262;-76
2022/08/31 00:41:54;;;;;;;5.43;2.80;;;;;;;;;;5055418;28;20394;-76
2022/08/31 00:44:19;;;;;;;4.27;2.90;;;;;;;;;;5055505;28;20017;-76
2022/08/31 00:46:44;;;;;;;5.40;2.77;;;;;;;;;;5055375;28;20256;-75
2022/08/31 00:49:17;;;;;;;8.30;2.90;;;;;;;;;;5055078;28;20339;-74
2022/08/31 00:51:48;;;;;;;4.45;2.58;;;;;;;;;;5055845;28;20025;-76
2022/08/31 00:54:17;;;;;;;5.95;2.60;;;;;;;;;;5055449;28;20036;-74
2022/08/31 00:56:43;;;;;;;4.13;2.80;;;;;;;;;;5055616;28;20104;-75
2022/08/31 00:59:10;;;;;;;9.30;2.70;;;;;;;;;;5055502;28;20394;-76
2022/08/31 01:01:36;;;;;;;5.82;2.90;;;;;;;;;;5055628;28;20056;-75
2022/08/31 01:04:01;;;;;;;6.55;2.55;;;;;;;;;;5054459;28;20039;-75
2022/08/31 01:06:27;;;;;;;8.27;2.53;;;;;;;;;;5055678;28;20055;-75
2022/08/31 01:08:56;;;;;;;4.47;2.50;;;;;;;;;;5055842;28;20025;-74
2022/08/31 01:11:22;;;;;;;4.13;2.33;;;;;;;;;;5054668;28;20074;-75
2022/08/31 01:13:48;;;;;;;3.78;2.80;;;;;;;;;;5056610;28;20107;-74
2022/08/31 01:16:19;;;;;;;3.53;2.55;;;;;;;;;;5056190;28;20032;-75
2022/08/31 01:18:45;;;;;;;3.72;2.20;;;;;;;;;;5056522;28;20497;-74
2022/08/31 01:21:19;;;;;;;4.28;2.80;;;;;;;;;;5057702;28;20037;-74
2022/08/31 01:23:45;;;;;;;3.72;2.60;;;;;;;;;;5058067;28;20112;-75
2022/08/31 01:26:15;;;;;;;5.40;2.60;;;;;;;;;;5057491;28;20491;-74
2022/08/31 01:28:40;;;;;;;4.22;2.55;;;;;;;;;;5056774;28;20060;-75
2022/08/31 01:31:17;;;;;;;7.87;2.43;;;;;;;;;;5057806;28;20029;-75
2022/08/31 01:33:42;;;;;;;3.50;2.83;;;;;;;;;;5056592;28;20278;-75
2022/08/31 01:36:08;;;;;;;4.83;2.50;;;;;;;;;;5056572;28;20432;-75
2022/08/31 01:38:34;;;;;;;3.78;2.42;;;;;;;;;;5056362;28;20270;-74
2022/08/31 01:41:01;;;;;;;4.95;2.58;;;;;;;;;;5056892;28;20123;-74
2022/08/31 01:43:27;;;;;;;4.78;2.53;;;;;;;;;;5056895;28;20017;-74
2022/08/31 01:45:53;;;;;;;6.03;2.72;;;;;;;;;;5056521;28;20025;-75
2022/08/31 01:48:18;;;;;;;4.10;2.22;;;;;;;;;;5056400;28;20037;-74
2022/08/31 01:50:43;;;;;;;4.88;2.40;;;;;;;;;;5055560;28;20025;-75
2022/08/31 01:53:09;;;;;;;5.85;2.25;;;;;;;;;;5057856;28;20025;-74
2022/08/31 01:55:34;;;;;;;2.28;2.05;;;;;;;;;;5058654;28;20470;-75
2022/08/31 01:58:00;;;;;;;4.00;2.65;;;;;;;;;;5061755;28;20025;-74
2022/08/31 02:00:27;;;;;;;4.13;2.45;;;;;;;;;;5063745;28;20047;-74
2022/08/31 02:02:52;;;;;;;4.72;2.42;;;;;;;;;;5062018;28;20060;-74
2022/08/31 02:05:18;;;;;;;7.75;2.70;;;;;;;;;;5054959;28;20033;-74
2022/08/31 02:07:44;;;;;;;3.63;2.30;;;;;;;;;;5055489;28;20029;-73
2022/08/31 02:10:09;;;;;;;3.10;2.53;;;;;;;;;;5055832;28;20039;-73
2022/08/31 02:12:34;;;;;;;3.97;2.63;;;;;;;;;;5054983;28;20025;-73
2022/08/31 02:14:59;;;;;;;4.43;2.53;;;;;;;;;;5055616;28;20024;-73
2022/08/31 02:17:25;;;;;;;4.17;2.63;;;;;;;;;;5054922;28;20028;-74
2022/08/31 02:19:50;;;;;;;4.87;2.23;;;;;;;;;;5054764;28;20250;-74
2022/08/31 02:22:15;;;;;;;8.40;3.47;;;;;;;;;;5054610;28;20281;-74
2022/08/31 02:24:40;;;;;;;3.40;2.60;;;;;;;;;;5054377;28;20470;-73
2022/08/31 02:27:06;;;;;;;4.80;2.60;;;;;;;;;;5054210;28;20056;-74
2022/08/31 02:29:32;;;;;;;4.10;2.80;;;;;;;;;;5053821;28;20734;-74
2022/08/31 02:31:57;;;;;;;3.75;2.45;;;;;;;;;;5053962;28;20044;-74
2022/08/31 02:34:22;;;;;;;4.23;2.43;;;;;;;;;;5053863;28;20017;-74
2022/08/31 02:36:48;;;;;;;3.90;2.40;;;;;;;;;;5052316;28;20260;-74
2022/08/31 02:39:13;;;;;;;6.70;2.70;;;;;;;;;;5052986;28;20032;-75
2022/08/31 02:41:39;;;;;;;3.30;2.50;;;;;;;;;;5054293;28;20033;-75
2022/08/31 02:44:04;;;;;;;5.53;2.80;;;;;;;;;;5053991;28;20260;-74
2022/08/31 02:46:30;;;;;;;3.45;2.53;;;;;;;;;;5055044;28;20029;-74
2022/08/31 02:48:55;;;;;;;3.22;2.60;;;;;;;;;;5055490;28;20497;-74
2022/08/31 02:51:20;;;;;;;5.07;2.73;;;;;;;;;;5055317;28;20025;-73
2022/08/31 02:53:46;;;;;;;5.22;2.67;;;;;;;;;;5052596;28;20300;-73
2022/08/31 02:56:13;;;;;;;5.70;2.90;;;;;;;;;;5053410;28;20021;-73
2022/08/31 02:58:39;;;;;;;4.68;3.20;;;;;;;;;;5054101;28;20025;-73
2022/08/31 03:01:04;;;;;;;6.63;2.90;;;;;;;;;;5053543;28;20017;-74
2022/08/31 03:03:29;;;;;;;6.03;2.75;;;;;;;;;;5054442;28;20013;-74
2022/08/31 03:05:55;;;;;;;5.13;3.10;;;;;;;;;;5055092;28;20074;-74
2022/08/31 03:08:20;;;;;;;4.82;3.10;;;;;;;;;;5055179;28;20107;-74
2022/08/31 03:10:45;;;;;;;4.65;2.88;;;;;;;;;;5055103;28;20499;-74
2022/08/31 03:13:11;;;;;;;8.05;3.13;;;;;;;;;;5055255;28;20461;-74
2022/08/31 03:15:36;;;;;;;4.07;2.88;;;;;;;;;;5055462;28;20051;-75
2022/08/31 03:18:01;;;;;;;6.45;3.05;;;;;;;;;;5055003;28;20033;-73
2022/08/31 03:20:27;;;;;;;3.73;3.07;;;;;;;;;;5055422;28;20460;-73
2022/08/31 03:22:53;;;;;;;4.50;3.20;;;;;;;;;;5057829;28;20288;-74
2022/08/31 03:25:19;;;;;;;4.20;3.00;;;;;;;;;;5058512;28;20029;-75
2022/08/31 03:27:45;;;;;;;8.60;3.22;;;;;;;;;;5059866;28;20064;-74
2022/08/31 03:30:15;;;;;;;5.50;3.20;;;;;;;;;;5059314;28;20048;-74
2022/08/31 03:32:40;;;;;;;3.78;3.10;;;;;;;;;;5060261;28;20024;-74
2022/08/31 03:35:07;;;;;;;7.75;3.10;;;;;;;;;;5058433;28;20025;-74
2022/08/31 03:37:32;;;;;;;3.97;2.97;;;;;;;;;;5057174;28;20033;-74
2022/08/31 03:39:58;;;;;;;7.40;3.28;;;;;;;;;;5056808;28;20497;-74
2022/08/31 03:42:24;;;;;;;8.18;3.28;;;;;;;;;;5052784;28;20025;-74
2022/08/31 03:44:50;;;;;;;5.70;3.08;;;;;;;;;;5053361;28;20028;-73
2022/08/31 03:47:15;;;;;;;4.90;3.22;;;;;;;;;;5053903;28;20037;-75
2022/08/31 03:49:41;;;;;;;5.65;3.00;;;;;;;;;;5061579;28;20036;-75
2022/08/31 03:52:06;;;;;;;3.70;2.83;;;;;;;;;;5068464;28;20530;-74
2022/08/31 03:54:31;;;;;;;6.50;2.90;;;;;;;;;;5069793;28;20057;-74
2022/08/31 03:56:57;;;;;;;6.05;2.85;;;;;;;;;;5070317;28;20050;-74
2022/08/31 03:59:22;;;;;;;5.30;3.00;;;;;;;;;;5069094;28;20084;-75
2022/08/31 04:01:47;;;;;;;4.07;2.80;;;;;;;;;;5066743;28;20021;-75
2022/08/31 04:04:13;;;;;;;6.70;3.33;;;;;;;;;;5068425;28;20308;-75
2022/08/31 04:06:40;;;;;;;9.02;2.90;;;;;;;;;;5065880;28;20028;-74
2022/08/31 04:09:05;;;;;;;8.95;2.90;;;;;;;;;;5066853;28;20027;-75
2022/08/31 04:11:31;;;;;;;5.47;2.65;;;;;;;;;;5066574;28;20076;-74
2022/08/31 04:13:56;;;;;;;4.45;2.72;;;;;;;;;;5064136;28;20129;-75
2022/08/31 04:16:23;;;;;;;6.97;2.50;;;;;;;;;;5064059;28;20025;-75
2022/08/31 04:18:48;;;;;;;4.72;2.83;;;;;;;;;;5064305;28;20029;-75
2022/08/31 04:21:19;;;;;;;3.83;2.80;;;;;;;;;;5061128;28;20028;-75
2022/08/31 04:23:45;;;;;;;7.63;2.65;;;;;;;;;;5057859;28;20028;-75
2022/08/31 04:26:27;;;;;;;6.68;2.70;;;;;;;;;;5056685;28;20029;-75
2022/08/31 04:28:53;;;;;;;7.13;2.83;;;;;;;;;;5055033;28;20071;-74
2022/08/31 04:31:19;;;;;;;5.80;2.63;;;;;;;;;;5055835;28;20033;-74
2022/08/31 04:33:45;;;;;;;5.47;2.83;;;;;;;;;;5055017;28;20021;-73
2022/08/31 04:36:13;;;;;;;6.25;2.58;;;;;;;;;;5056243;28;20031;-75
2022/08/31 04:38:42;;;;;;;4.32;2.53;;;;;;;;;;5054973;28;20070;-74
2022/08/31 04:41:11;;;;;;;4.90;2.47;;;;;;;;;;5056109;28;20558;-75
2022/08/31 04:43:38;;;;;;;4.57;2.60;;;;;;;;;;5056536;28;20024;-76
2022/08/31 04:46:05;;;;;;;6.07;2.90;;;;;;;;;;5057107;28;20368;-75
2022/08/31 04:48:31;;;;;;;4.22;2.60;;;;;;;;;;5057414;28;20056;-75
2022/08/31 04:51:10;;;;;;;4.28;2.70;;;;;;;;;;5056585;28;20151;-75
2022/08/31 04:53:35;;;;;;;4.03;2.60;;;;;;;;;;5054127;28;20537;-75
2022/08/31 04:56:14;;;;;;;4.97;2.70;;;;;;;;;;5055132;28;20037;-74
2022/08/31 04:58:48;;;;;;;3.97;2.50;;;;;;;;;;5055687;28;20091;-74
2022/08/31 05:01:16;;;;;;;3.13;2.58;;;;;;;;;;5054816;28;20025;-74
2022/08/31 05:03:42;;;;;;;5.05;2.85;;;;;;;;;;5055221;28;20087;-75
2022/08/31 05:06:13;;;;;;;6.50;3.13;;;;;;;;;;5053579;28;20040;-75
2022/08/31 05:08:41;;;;;;;4.78;2.70;;;;;;;;;;5055010;28;20116;-75
2022/08/31 05:11:11;;;;;;;7.03;3.25;;;;;;;;;;5054975;28;20025;-75
2022/08/31 05:13:37;;;;;;;3.80;2.75;;;;;;;;;;5054955;28;20579;-74
2022/08/31 05:16:09;;;;;;;4.70;2.92;;;;;;;;;;5054853;28;20044;-75
2022/08/31 05:18:40;;;;;;;3.47;2.70;;;;;;;;;;5054572;28;20407;-75
2022/08/31 05:21:29;;;;;;;5.57;3.00;;;;;;;;;;5054625;28;20052;-75
2022/08/31 05:23:57;;;;;;;6.65;2.80;;;;;;;;;;5054728;28;20096;-73
2022/08/31 05:26:25;;;;;;;4.03;3.00;;;;;;;;;;5054783;28;20033;-75
2022/08/31 05:28:51;;;;;;;5.60;3.20;;;;;;;;;;5055294;28;20025;-74
2022/08/31 05:31:16;;;;;;;4.60;3.10;;;;;;;;;;5053861;28;20025;-74
2022/08/31 05:33:42;;;;;;;5.47;3.22;;;;;;;;;;5054740;28;20021;-73
2022/08/31 05:36:08;;;;;;;4.25;2.92;;;;;;;;;;5055570;28;20032;-75
2022/08/31 05:38:34;;;;;;;4.78;3.15;;;;;;;;;;5055842;28;20428;-75
2022/08/31 05:41:00;;;;;;;7.10;3.30;;;;;;;;;;5055484;28;20127;-74
2022/08/31 05:43:26;;;;;;;6.68;2.90;;;;;;;;;;5054878;28;20031;-75
2022/08/31 05:45:53;;;;;;;5.53;3.30;;;;;;;;;;5052918;28;20389;-75
2022/08/31 05:48:19;;;;;;;4.57;2.92;;;;;;;;;;5052904;28;20489;-75
2022/08/31 05:50:44;;;;;;;6.38;3.13;;;;;;;;;;5053200;28;20051;-75
2022/08/31 05:53:09;;;;;;;6.60;3.10;;;;;;;;;;5053894;28;20067;-74
2022/08/31 05:55:35;;;;;;;4.82;2.97;;;;;;;;;;5053975;28;20028;-74
2022/08/31 05:58:00;;;;;;;7.35;3.00;;;;;;;;;;5054073;28;20051;-73
2022/08/31 06:00:25;;;;;;;4.80;3.60;;;;;;;;;;5052650;28;20067;-73
2022/08/31 06:02:51;;;;;;;5.35;2.97;;;;;;;;;;5053824;28;20335;-74
2022/08/31 06:05:17;;;;;;;6.28;3.42;;;;;;;;;;5053586;28;20037;-74
2022/08/31 06:07:42;;;;;;;4.40;3.08;;;;;;;;;;5054366;28;20028;-74
2022/08/31 06:10:08;;;;;;;4.05;2.80;;;;;;;;;;5053836;28;20056;-74
2022/08/31 06:12:36;;;;;;;4.15;3.03;;;;;;;;;;5053334;28;20033;-74
2022/08/31 06:15:03;;;;;;;7.25;3.10;;;;;;;;;;5051670;28;20068;-75
2022/08/31 06:17:29;;;;;;;5.32;3.10;;;;;;;;;;5053537;28;20028;-74
2022/08/31 06:19:56;;;;;;;6.78;3.17;;;;;;;;;;5054110;28;20355;-74
2022/08/31 06:22:22;;;;;;;4.80;3.20;;;;;;;;;;5053463;28;20036;-74
2022/08/31 06:24:47;;;;;;;6.10;3.13;;;;;;;;;;5053223;28;20020;-75
2022/08/31 06:27:13;;;;;;;3.83;2.77;;;;;;;;;;5053149;28;20057;-74
2022/08/31 06:29:38;;;;;;;5.55;3.20;;;;;;;;;;5053002;28;20307;-75
2022/08/31 06:32:08;;;;;;;4.30;3.23;;;;;;;;;;5053356;28;20497;-75
2022/08/31 06:34:35;;;;;;;11.73;3.35;;;;;;;;;;5055583;28;20301;-79
2022/08/31 06:37:02;;;;;;;5.20;3.13;;;;;;;;;;5055695;28;20025;-79
2022/08/31 06:39:28;;;;;;;6.05;3.22;;;;;;;;;;5055318;28;20123;-79
2022/08/31 06:41:54;;;;;;;4.75;2.80;;;;;;;;;;5057890;28;20057;-79
2022/08/31 06:44:21;;;;;;;3.70;2.80;;;;;;;;;;5056308;28;20357;-79
2022/08/31 06:46:46;;;;;;;3.78;2.75;;;;;;;;;;5055466;28;20021;-78
2022/08/31 06:49:12;;;;;;;5.50;3.00;;;;;;;;;;5055015;28;20048;-77
2022/08/31 06:51:37;;;;;;;9.30;2.90;;;;;;;;;;5053339;28;20040;-81
2022/08/31 06:54:06;;;;;;;9.35;2.70;;;;;;;;;;5055799;28;20475;-79
2022/08/31 06:56:32;;;;;;;8.38;3.20;;;;;;;;;;5056102;28;20398;-79
2022/08/31 06:59:00;;;;;;;5.15;2.80;;;;;;;;;;5055744;28;20033;-79
2022/08/31 07:01:27;;;;;;;3.88;2.63;;;;;;;;;;5054780;28;20025;-77
2022/08/31 07:03:58;;;;;;;4.07;2.47;;;;;;;;;;5052529;28;20390;-77
2022/08/31 07:06:25;;;;;;;4.22;2.55;;;;;;;;;;5052752;28;20029;-77
2022/08/31 07:08:55;;;;;;;4.80;2.78;;;;;;;;;;5052119;28;20133;-80
2022/08/31 07:11:27;;;;;;;6.10;2.55;;;;;;;;;;5053983;28;20045;-77
2022/08/31 07:13:54;;;;;;;3.45;2.50;;;;;;;;;;5053285;28;20033;-77
2022/08/31 07:16:21;;;;;;;4.70;2.65;;;;;;;;;;5051826;28;20128;-77
2022/08/31 07:18:48;;;;;;;3.70;2.40;;;;;;;;;;5052820;28;20029;-77
2022/08/31 07:21:21;;;;;;;4.55;2.40;;;;;;;;;;5051324;28;20025;-77
2022/08/31 07:23:47;;;;;;;6.13;2.17;;;;;;;;;;5053165;28;20070;-77
2022/08/31 07:26:16;;;;;;;4.22;2.50;;;;;;;;;;5054716;28;20035;-76
2022/08/31 07:28:42;;;;;;;4.45;2.60;;;;;;;;;;5056528;28;20033;-77
2022/08/31 07:31:08;;;;;;;4.32;2.35;;;;;;;;;;5056456;28;20466;-77
2022/08/31 07:33:40;;;;;;;8.20;2.80;;;;;;;;;;5056384;28;20029;-76
2022/08/31 07:36:13;;;;;;;5.55;2.10;;;;;;;;;;5056318;28;20441;-77
2022/08/31 07:44:09;;;;;;;5.30;2.28;;;;;;;;;;5056040;28;20027;-77
2022/08/31 07:46:35;;;;;;;4.70;2.22;;;;;;;;;;5054575;28;20159;-77
2022/08/31 07:49:00;;;;;;;8.55;2.25;;;;;;;;;;5054692;28;20199;-77
2022/08/31 07:51:26;;;;;;;6.47;2.40;;;;;;;;;;5056051;28;20491;-77
2022/08/31 07:53:53;;;;;;;4.65;2.30;;;;;;;;;;5055897;28;20025;-76
2022/08/31 07:56:19;;;;;;;6.05;2.35;;;;;;;;;;5054364;28;20021;-77
2022/08/31 07:58:46;;;;;;;3.13;2.28;;;;;;;;;;5056045;28;20029;-77
2022/08/31 08:01:13;;;;;;;6.22;2.30;;;;;;;;;;5055667;28;20025;-77
2022/08/31 08:03:42;;;;;;;4.93;2.33;;;;;;;;;;5054546;28;20398;-77
2022/08/31 08:06:11;;;;;;;5.57;2.10;;;;;;;;;;5055894;28;20513;-76
2022/08/31 08:08:36;;;;;;;5.88;2.45;;;;;;;;;;5055613;28;20452;-77
2022/08/31 08:11:01;;;;;;;6.03;2.23;;;;;;;;;;5055531;28;20021;-77
2022/08/31 08:13:30;;;;;;;5.30;2.25;;;;;;;;;;5055054;28;20850;-77
2022/08/31 08:16:01;;;;;;;6.38;2.10;;;;;;;;;;5055680;28;20021;-76
2022/08/31 08:18:28;;;;;;;4.38;2.10;;;;;;;;;;5055351;28;20390;-77
2022/08/31 08:20:54;;;;;;;9.18;2.33;;;;;;;;;;5055473;28;20020;-76
2022/08/31 08:23:19;;;;;;;4.88;2.25;;;;;;;;;;5055341;28;20028;-76
2022/08/31 08:25:45;;;;;;;5.80;1.92;;;;;;;;;;5053681;28;20029;-76
2022/08/31 08:28:16;;;;;;;3.10;1.98;;;;;;;;;;5053722;28;20125;-76
2022/08/31 08:30:43;;;;;;;4.63;1.92;;;;;;;;;;5055059;28;20025;-76
2022/08/31 08:33:09;;;;;;;6.00;2.08;;;;;;;;;;5053648;28;20445;-75
2022/08/31 08:35:34;;;;;;;5.30;2.20;;;;;;;;;;5053557;28;20024;-76
2022/08/31 08:37:59;;;;;;;3.00;2.00;;;;;;;;;;5054924;28;20028;-76
2022/08/31 08:40:42;;;;;;;5.30;1.90;;;;;;;;;;5053800;28;20278;-75
2022/08/31 08:43:11;;;;;;;3.88;2.10;;;;;;;;;;5055173;28;20754;-75
2022/08/31 08:45:37;;;;;;;5.47;2.00;;;;;;;;;;5055006;28;20035;-75
2022/08/31 08:48:07;;;;;;;4.13;2.05;;;;;;;;;;5054712;28;20449;-76
2022/08/31 08:50:34;;;;;;;3.63;1.90;;;;;;;;;;5053312;28;20091;-76
2022/08/31 08:53:03;;;;;;;5.55;2.15;;;;;;;;;;5053264;28;20057;-76
2022/08/31 08:55:34;;;;;;;3.90;1.80;;;;;;;;;;5054518;28;20027;-76
2022/08/31 08:57:59;;;;;;;4.82;2.03;;;;;;;;;;5054338;28;20558;-76
2022/08/31 09:00:27;;;;;;;3.60;2.03;;;;;;;;;;5054376;28;20111;-76
2022/08/31 09:03:02;;;;;;;3.55;1.90;;;;;;;;;;5054372;28;20478;-76
2022/08/31 09:05:46;;;;;;;5.30;1.88;;;;;;;;;;5054391;28;20037;-77
2022/08/31 09:08:23;;;;;;;5.90;2.00;;;;;;;;;;5053179;28;20032;-77
2022/08/31 09:11:05;;;;;;;4.90;2.00;;;;;;;;;;5054413;28;20478;-77
2022/08/31 09:14:05;;;;;;;8.05;2.05;;;;;;;;;;5054557;28;20036;-75
2022/08/31 09:17:04;;;;;;;4.28;2.08;;;;;;;;;;5054342;28;20431;-76
2022/08/31 09:19:57;;;;;;;4.35;2.00;;;;;;;;;;5052776;28;20025;-76
2022/08/31 09:22:14;;;;;;;4.30;1.90;;;;;;;;;;5053961;28;20029;-76
2022/08/31 09:24:40;;;;;;;4.38;1.88;;;;;;;;;;5054210;28;20013;-76
2022/08/31 09:27:17;;;;;;;5.67;2.20;;;;;;;;;;5053925;28;20499;-76
2022/08/31 09:29:54;;;;;;;6.22;2.15;;;;;;;;;;5053854;28;20388;-77
2022/08/31 09:32:26;;;;;;;5.05;2.20;;;;;;;;;;5053961;28;20021;-76
2022/08/31 09:35:00;;;;;;;3.83;2.00;;;;;;;;;;5053942;28;20478;-76
2022/08/31 09:37:27;;;;;;;2.88;1.73;;;;;;;;;;5054157;28;20544;-76
2022/08/31 09:39:53;;;;;;;3.15;1.75;;;;;;;;;;5053900;28;20040;-76
2022/08/31 09:42:30;;;;;;;4.55;1.90;;;;;;;;;;5054046;28;20025;-76
2022/08/31 09:44:59;;;;;;;10.65;1.92;;;;;;;;;;5053966;28;20099;-76
2022/08/31 09:47:47;;;;;;;2.80;1.77;;;;;;;;;;5053518;28;20044;-76
2022/08/31 09:50:43;;;;;;;3.38;1.65;;;;;;;;;;5052554;28;20433;-76
2022/08/31 09:56:20;;;;;;;2.47;1.70;;;;;;;;;;5053431;28;20035;-76
2022/08/31 09:58:53;;;;;;;3.35;1.95;;;;;;;;;;5053722;28;20016;-76
2022/08/31 10:01:27;;;;;;;3.45;1.98;;;;;;;;;;5053386;28;20115;-76
2022/08/31 10:04:25;;;;;;;3.50;1.85;;;;;;;;;;5052014;28;20483;-75
2022/08/31 10:07:06;;;;;;;2.30;1.70;;;;;;;;;;5051828;28;20501;-76
2022/08/31 10:09:37;;;;;;;2.35;1.50;;;;;;;;;;5053558;28;20025;-75
2022/08/31 10:12:12;;;;;;;3.20;1.80;;;;;;;;;;5053089;28;20031;-76
2022/08/31 10:14:52;;;;;;;3.25;1.70;;;;;;;;;;5053255;28;20417;-76
2022/08/31 10:17:25;;;;;;;2.90;1.63;;;;;;;;;;5053186;28;20029;-76
2022/08/31 10:19:55;;;;;;;8.63;1.90;;;;;;;;;;5053121;28;20021;-76
2022/08/31 10:22:40;;;;;;;6.03;1.80;;;;;;;;;;5051812;28;20247;-77
2022/08/31 10:25:25;;;;;;;3.08;1.75;;;;;;;;;;5052975;28;20020;-77
2022/08/31 10:28:05;;;;;;;3.15;1.70;;;;;;;;;;5052997;28;20125;-76
2022/08/31 10:30:40;;;;;;;3.63;1.75;;;;;;;;;;5053165;28;20074;-76
2022/08/31 10:33:18;;;;;;;4.70;1.52;;;;;;;;;;5052876;28;20090;-77
2022/08/31 10:35:53;;;;;;;3.40;1.70;;;;;;;;;;5052506;28;20147;-76
2022/08/31 10:38:31;;;;;;;3.97;1.60;;;;;;;;;;5052747;28;20071;-76
2022/08/31 10:41:16;;;;;;;2.47;1.42;;;;;;;;;;5053977;28;20518;-78
2022/08/31 10:43:52;;;;;;;3.78;1.52;;;;;;;;;;5053109;28;20021;-78
2022/08/31 10:46:18;;;;;;;2.22;1.40;;;;;;;;;;5053083;28;20029;-77
2022/08/31 10:48:49;;;;;;;3.83;1.50;;;;;;;;;;5052953;28;20021;-76
2022/08/31 10:51:18;;;;;;;2.00;1.35;;;;;;;;;;5053289;28;20127;-76
2022/08/31 10:54:01;;;;;;;3.22;1.60;;;;;;;;;;5052828;28;20424;-76
2022/08/31 10:56:40;;;;;;;2.00;1.33;;;;;;;;;;5051301;28;20032;-76
2022/08/31 10:59:26;;;;;;;5.18;1.90;;;;;;;;;;5051344;28;20025;-77
2022/08/31 11:02:19;;;;;;;2.92;1.40;;;;;;;;;;5057580;28;20505;-77
2022/08/31 11:04:54;;;;;;;3.97;1.80;;;;;;;;;;5056812;28;20040;-77
2022/08/31 11:07:52;;;;;;;2.65;1.42;;;;;;;;;;5055479;28;20044;-77
2022/08/31 11:10:43;;;;;;;2.65;1.40;;;;;;;;;;5056996;28;20032;-77
2022/08/31 11:13:34;;;;;;;3.42;1.73;;;;;;;;;;5056149;28;20399;-78
2022/08/31 11:16:23;;;;;;;1.95;1.20;;;;;;;;;;5056495;28;20025;-77
2022/08/31 11:19:08;;;;;;;2.78;1.30;;;;;;;;;;5055564;28;20561;-76
2022/08/31 11:21:46;;;;;;;2.55;1.55;;;;;;;;;;5056837;28;20025;-75
2022/08/31 11:24:36;;;;;;;1.80;1.10;;;;;;;;;;5056722;28;20489;-76
2022/08/31 11:27:23;;;;;;;4.88;1.38;;;;;;;;;;5055118;28;20040;-76
2022/08/31 11:29:57;;;;;;;2.25;1.48;;;;;;;;;;5056458;28;20075;-75
2022/08/31 11:32:45;;;;;;;1.23;1.10;;;;;;;;;;5056299;28;20102;-77
2022/08/31 11:35:13;;;;;;;3.40;1.50;;;;;;;;;;5056318;28;20036;-76
2022/08/31 11:37:51;;;;;;;1.50;1.10;;;;;;;;;;5055395;28;20367;-77
2022/08/31 11:40:41;;;;;;;5.07;1.17;;;;;;;;;;5056077;28;20060;-77
2022/08/31 11:43:12;;;;;;;3.75;1.30;;;;;;;;;;5056367;28;20021;-76
2022/08/31 11:45:38;;;;;;;1.80;1.15;;;;;;;;;;5055881;28;20084;-76
2022/08/31 11:48:11;;;;;;;1.30;1.10;;;;;;;;;;5055989;28;20053;-77
2022/08/31 11:50:54;;;;;;;1.33;0.98;;;;;;;;;;5054819;28;20402;-77
2022/08/31 11:53:34;;;;;;;2.50;0.98;;;;;;;;;;5054791;28;20159;-76
2022/08/31 11:56:04;;;;;;;1.63;1.00;;;;;;;;;;5054300;28;20107;-77
2022/08/31 11:58:38;;;;;;;4.40;1.10;;;;;;;;;;5054419;28;20039;-76
2022/08/31 12:01:09;;;;;;;5.03;1.73;;;;;;;;;;5054188;28;20021;-80
2022/08/31 12:03:51;;;;;;;2.38;1.10;;;;;;;;;;5054289;28;20052;-76
2022/08/31 12:06:26;;;;;;;1.35;1.10;;;;;;;;;;5054168;28;20036;-76
2022/08/31 12:09:15;;;;;;;1.73;1.10;;;;;;;;;;5054228;28;20025;-76
2022/08/31 12:11:51;;;;;;;2.15;1.00;;;;;;;;;;5055458;28;20111;-77
2022/08/31 12:14:33;;;;;;;3.50;1.10;;;;;;;;;;5055687;28;20064;-76
2022/08/31 12:17:20;;;;;;;1.33;1.00;;;;;;;;;;5055809;28;20032;-76
2022/08/31 12:20:14;;;;;;;2.75;1.00;;;;;;;;;;5054212;28;20433;-77
2022/08/31 12:26:03;;;;;;;3.60;1.20;;;;;;;;;;5055377;28;20031;-76
2022/08/31 12:28:53;;;;;;;2.67;1.10;;;;;;;;;;5056557;28;20159;-77
2022/08/31 12:31:19;;;;;;;1.85;1.02;;;;;;;;;;5053771;28;20028;-76
2022/08/31 12:33:55;;;;;;;3.53;1.20;;;;;;;;;;5053689;28;20029;-76
2022/08/31 12:36:26;;;;;;;3.83;1.27;;;;;;;;;;5053639;28;20021;-76
2022/08/31 12:39:07;;;;;;;2.88;1.02;;;;;;;;;;5055196;28;20020;-76
2022/08/31 12:41:33;;;;;;;1.67;1.25;;;;;;;;;;5055102;28;20025;-76
2022/08/31 12:43:59;;;;;;;3.45;1.25;;;;;;;;;;5053998;28;20029;-76
2022/08/31 12:46:38;;;;;;;2.38;1.10;;;;;;;;;;5054654;28;20382;-76
2022/08/31 12:49:46;;;;;;;2.40;1.27;;;;;;;;;;5054755;28;20438;-75
2022/08/31 12:52:36;;;;;;;2.95;0.93;;;;;;;;;;5056021;28;20036;-78
2022/08/31 12:55:12;;;;;;;4.30;1.20;;;;;;;;;;5054659;28;20029;-76
2022/08/31 12:57:58;;;;;;;2.33;1.20;;;;;;;;;;5054573;28;20522;-76
2022/08/31 13:00:28;;;;;;;2.00;1.30;;;;;;;;;;5054765;28;20061;-77
2022/08/31 13:02:58;;;;;;;1.77;1.30;;;;;;;;;;5054630;28;20056;-75
2022/08/31 13:05:29;;;;;;;2.08;1.05;;;;;;;;;;5054183;28;20500;-76
2022/08/31 13:07:55;;;;;;;4.00;1.20;;;;;;;;;;5052920;28;20474;-77
2022/08/31 13:10:20;;;;;;;1.92;1.15;;;;;;;;;;5054583;28;20025;-76
2022/08/31 13:12:52;;;;;;;3.13;1.10;;;;;;;;;;5054190;28;20028;-76
2022/08/31 13:15:24;;;;;;;3.80;1.00;;;;;;;;;;5053845;28;20072;-75
2022/08/31 13:17:52;;;;;;;3.13;1.20;;;;;;;;;;5054598;28;20075;-77
2022/08/31 13:20:19;;;;;;;1.02;0.93;;;;;;;;;;5052829;28;20115;-76
2022/08/31 13:22:53;;;;;;;1.83;1.00;;;;;;;;;;5053728;28;20060;-75
2022/08/31 13:25:34;;;;;;;1.38;1.23;;;;;;;;;;5054061;28;20493;-77
2022/08/31 13:28:13;;;;;;;3.22;1.08;;;;;;;;;;5054376;28;20025;-76
2022/08/31 13:30:41;;;;;;;5.57;1.20;;;;;;;;;;5053355;28;20056;-75
2022/08/31 13:33:23;;;;;;;1.70;1.00;;;;;;;;;;5053674;28;20021;-76
2022/08/31 13:35:52;;;;;;;2.03;1.10;;;;;;;;;;5054266;28;20024;-77
2022/08/31 13:38:38;;;;;;;1.80;1.00;;;;;;;;;;5053861;28;20031;-76
2022/08/31 13:41:06;;;;;;;1.83;1.05;;;;;;;;;;5053566;28;20444;-76
2022/08/31 13:43:33;;;;;;;1.83;0.93;;;;;;;;;;5052446;28;20049;-77
2022/08/31 13:45:59;;;;;;;1.33;0.90;;;;;;;;;;5052201;28;20039;-76
2022/08/31 13:48:39;;;;;;;1.48;1.10;;;;;;;;;;5052625;28;20498;-76
2022/08/31 13:51:11;;;;;;;3.25;1.23;;;;;;;;;;5053871;28;20040;-76
2022/08/31 13:53:43;;;;;;;3.20;1.05;;;;;;;;;;5052049;28;20495;-75
2022/08/31 13:59:20;;;;;;;1.92;1.00;;;;;;;;;;5053501;28;20563;-76
2022/08/31 14:01:47;;;;;;;3.17;1.10;;;;;;;;;;5053109;28;20028;-76
2022/08/31 14:04:37;;;;;;;2.15;1.05;;;;;;;;;;5053318;28;20387;-76
2022/08/31 14:07:03;;;;;;;1.20;1.00;;;;;;;;;;5053446;28;20597;-75
2022/08/31 14:09:28;;;;;;;1.55;1.02;;;;;;;;;;5053172;28;20068;-74
2022/08/31 14:12:01;;;;;;;3.95;1.20;;;;;;;;;;5053085;28;20024;-75
2022/08/31 14:14:34;;;;;;;2.65;1.08;;;;;;;;;;5051685;28;20490;-75
2022/08/31 14:17:02;;;;;;;2.65;1.20;;;;;;;;;;5053269;28;20033;-74
2022/08/31 14:19:32;;;;;;;1.75;1.08;;;;;;;;;;5051701;28;20024;-76
2022/08/31 14:22:15;;;;;;;2.53;1.17;;;;;;;;;;5053212;28;20021;-76
2022/08/31 14:24:41;;;;;;;2.20;1.30;;;;;;;;;;5052956;28;20074;-76
2022/08/31 14:27:08;;;;;;;4.30;1.23;;;;;;;;;;5053363;28;20036;-76
2022/08/31 14:29:35;;;;;;;5.38;1.33;;;;;;;;;;5052895;28;20033;-76
2022/08/31 14:32:02;;;;;;;3.45;1.13;;;;;;;;;;5052818;28;20125;-76
2022/08/31 14:34:30;;;;;;;2.65;1.02;;;;;;;;;;5051830;28;20582;-75
2022/08/31 14:37:15;;;;;;;3.60;1.33;;;;;;;;;;5053412;28;20103;-76
2022/08/31 14:39:46;;;;;;;2.83;1.02;;;;;;;;;;5052808;28;20021;-76
2022/08/31 14:42:28;;;;;;;1.90;1.00;;;;;;;;;;5052869;28;20021;-75
2022/08/31 14:45:17;;;;;;;7.10;1.30;;;;;;;;;;5051426;28;20017;-77
2022/08/31 14:47:45;;;;;;;3.20;1.58;;;;;;;;;;5051451;28;20031;-76
2022/08/31 14:50:15;;;;;;;2.88;1.35;;;;;;;;;;5052689;28;20101;-77
2022/08/31 14:52:43;;;;;;;2.30;1.23;;;;;;;;;;5052623;28;20044;-78
2022/08/31 14:55:11;;;;;;;1.92;1.35;;;;;;;;;;5053071;28;20033;-77
2022/08/31 14:57:40;;;;;;;3.08;1.20;;;;;;;;;;5052931;28;20438;-76
2022/08/31 15:00:10;;;;;;;1.42;1.08;;;;;;;;;;5053053;28;20032;-78
2022/08/31 15:02:35;;;;;;;1.77;1.20;;;;;;;;;;5052824;28;20039;-76
2022/08/31 15:05:05;;;;;;;1.95;1.20;;;;;;;;;;5052831;28;20021;-77
2022/08/31 15:07:33;;;;;;;4.65;1.40;;;;;;;;;;5053291;28;20032;-76
2022/08/31 15:09:59;;;;;;;3.70;1.30;;;;;;;;;;5052903;28;20486;-77
2022/08/31 15:12:24;;;;;;;1.60;1.20;;;;;;;;;;5051241;28;20025;-76
2022/08/31 15:14:58;;;;;;;4.18;1.40;;;;;;;;;;5052313;28;20021;-76
2022/08/31 15:17:25;;;;;;;5.63;1.60;;;;;;;;;;5051177;28;20470;-76
2022/08/31 15:19:51;;;;;;;3.55;1.95;;;;;;;;;;5051096;28;20064;-76
2022/08/31 15:22:17;;;;;;;2.50;1.30;;;;;;;;;;5052384;28;20391;-76